Time;durP1;ratioP1;P1;durP2;ratioP2;P2;SDS_P1;SDS_P2;PMS_P1;PMS_P2;Temp;Humidity;BMP_temperature;BMP_pressure;BME280_temperature;BME280_humidity;BME280_pressure;Samples;Min_cycle;Max_cycle;Signal;HPM_P1;HPM_P2
2023/12/22 00:01:41;;;;;;;3.75;2.90;;;23.00;54.90;;;;;;5069284;28;20086;-68
2023/12/22 00:04:07;;;;;;;2.97;2.40;;;23.00;54.90;;;;;;5069341;28;20056;-68
2023/12/22 00:06:33;;;;;;;3.67;2.47;;;23.00;54.90;;;;;;5086076;28;20044;-68
2023/12/22 00:08:59;;;;;;;3.33;2.42;;;23.00;55.00;;;;;;5111293;28;20108;-68
2023/12/22 00:11:26;;;;;;;3.80;2.67;;;23.10;55.10;;;;;;5112203;28;20019;-69
2023/12/22 00:13:52;;;;;;;3.10;2.45;;;23.00;55.10;;;;;;5112600;28;20548;-68
2023/12/22 00:16:18;;;;;;;3.50;2.90;;;23.00;55.10;;;;;;5110440;28;20039;-68
2023/12/22 00:18:44;;;;;;;3.03;2.47;;;23.10;55.30;;;;;;5112303;27;20034;-68
2023/12/22 00:21:11;;;;;;;2.85;2.25;;;23.00;55.20;;;;;;5112350;28;20090;-68
2023/12/22 00:23:37;;;;;;;3.65;2.65;;;23.10;55.30;;;;;;5112219;28;20496;-68
2023/12/22 00:26:05;;;;;;;3.47;1.90;;;23.10;55.30;;;;;;5111842;28;20061;-68
2023/12/22 00:28:34;;;;;;;3.85;2.05;;;23.10;55.20;;;;;;5092912;28;20426;-69
2023/12/22 00:31:00;;;;;;;5.07;2.67;;;23.10;55.10;;;;;;5111557;28;20035;-68
2023/12/22 00:33:26;;;;;;;2.85;2.35;;;23.10;55.10;;;;;;5110809;28;20046;-68
2023/12/22 00:35:52;;;;;;;5.22;2.72;;;23.10;55.20;;;;;;5091763;28;20047;-68
2023/12/22 00:38:19;;;;;;;2.47;2.15;;;23.10;55.10;;;;;;5091745;28;20028;-68
2023/12/22 00:40:45;;;;;;;3.90;2.30;;;23.00;55.10;;;;;;5093326;28;20136;-68
2023/12/22 00:43:11;;;;;;;4.10;2.30;;;23.00;55.10;;;;;;5111950;28;20111;-68
2023/12/22 00:45:37;;;;;;;2.72;2.35;;;23.00;55.20;;;;;;5111541;28;20032;-68
2023/12/22 00:48:03;;;;;;;5.70;3.30;;;23.00;55.30;;;;;;5092727;28;20539;-68
2023/12/22 00:50:29;;;;;;;2.50;2.00;;;23.00;55.40;;;;;;5111943;28;20031;-68
2023/12/22 00:52:55;;;;;;;3.00;2.55;;;23.00;55.40;;;;;;5111765;28;20111;-68
2023/12/22 00:55:21;;;;;;;3.10;2.35;;;23.00;55.40;;;;;;5109722;28;20465;-68
2023/12/22 00:57:47;;;;;;;3.42;2.42;;;23.10;55.50;;;;;;5111752;28;20115;-68
2023/12/22 01:00:14;;;;;;;2.42;1.77;;;23.10;55.60;;;;;;5111268;28;20023;-68
2023/12/22 01:02:40;;;;;;;2.72;2.17;;;23.00;55.50;;;;;;5110945;28;20093;-68
2023/12/22 01:05:07;;;;;;;2.33;2.13;;;23.00;55.40;;;;;;5111390;28;20043;-68
2023/12/22 01:07:33;;;;;;;2.67;2.03;;;22.90;55.50;;;;;;5111446;28;20039;-68
2023/12/22 01:10:03;;;;;;;2.45;1.95;;;22.90;55.40;;;;;;5110207;28;20046;-68
2023/12/22 01:12:30;;;;;;;1.83;1.55;;;22.90;55.50;;;;;;5071428;28;20041;-68
2023/12/22 01:14:57;;;;;;;2.42;1.80;;;23.00;55.50;;;;;;5087976;28;20063;-68
2023/12/22 01:17:23;;;;;;;2.67;1.80;;;22.90;55.50;;;;;;5088613;28;20056;-68
2023/12/22 01:19:50;;;;;;;1.95;1.80;;;22.90;55.50;;;;;;5071458;28;20044;-68
2023/12/22 01:22:17;;;;;;;1.80;1.67;;;22.80;55.40;;;;;;5088401;28;20056;-68
2023/12/22 01:24:45;;;;;;;1.95;1.77;;;22.90;55.60;;;;;;5087884;28;20036;-68
2023/12/22 01:27:11;;;;;;;6.00;1.90;;;22.90;55.60;;;;;;5088483;28;20047;-68
2023/12/22 01:29:38;;;;;;;2.33;1.83;;;23.00;55.60;;;;;;5087845;28;20060;-68
2023/12/22 01:32:04;;;;;;;2.15;1.88;;;22.90;55.60;;;;;;5071443;28;20204;-68
2023/12/22 01:34:30;;;;;;;3.03;1.92;;;22.90;55.50;;;;;;5088295;28;20799;-68
2023/12/22 01:36:56;;;;;;;1.60;1.42;;;23.00;55.40;;;;;;5087859;28;20515;-68
2023/12/22 01:39:22;;;;;;;1.60;1.50;;;22.90;55.40;;;;;;5087182;28;20475;-68
2023/12/22 01:41:48;;;;;;;1.95;1.65;;;23.00;55.40;;;;;;5087640;28;20492;-68
2023/12/22 01:44:14;;;;;;;2.33;1.90;;;23.00;55.30;;;;;;5106706;28;20479;-68
2023/12/22 01:46:40;;;;;;;3.50;2.08;;;23.00;55.30;;;;;;5075027;28;20422;-68
2023/12/22 01:49:08;;;;;;;4.53;2.33;;;23.00;55.30;;;;;;5109421;28;20462;-68
2023/12/22 01:51:35;;;;;;;2.85;1.95;;;23.20;55.40;;;;;;5110870;28;20047;-68
2023/12/22 01:54:01;;;;;;;4.03;1.52;;;23.00;55.30;;;;;;5111203;28;20059;-67
2023/12/22 01:56:29;;;;;;;1.98;1.70;;;23.20;55.20;;;;;;5110645;28;20089;-67
2023/12/22 01:58:59;;;;;;;1.58;1.48;;;23.10;55.20;;;;;;5110347;28;20099;-67
2023/12/22 02:01:25;;;;;;;3.38;1.73;;;23.20;55.10;;;;;;5110288;28;20035;-67
2023/12/22 02:03:53;;;;;;;2.47;1.60;;;23.20;55.10;;;;;;5110617;28;20047;-67
2023/12/22 02:06:20;;;;;;;2.30;1.80;;;23.10;55.10;;;;;;5111007;28;20483;-67
2023/12/22 02:08:49;;;;;;;2.47;1.73;;;23.30;55.20;;;;;;5111003;28;20044;-67
2023/12/22 02:11:16;;;;;;;2.53;1.63;;;23.10;55.10;;;;;;5110299;28;20039;-67
2023/12/22 02:13:45;;;;;;;2.33;1.73;;;23.20;55.00;;;;;;5110573;28;20026;-67
2023/12/22 02:16:14;;;;;;;3.30;1.90;;;23.30;55.10;;;;;;5113264;28;20055;-68
2023/12/22 02:18:46;;;;;;;2.28;1.92;;;23.30;55.10;;;;;;5114270;28;20062;-67
2023/12/22 02:21:13;;;;;;;1.98;1.77;;;23.20;54.90;;;;;;5114648;28;20099;-68
2023/12/22 02:23:39;;;;;;;2.17;1.90;;;23.20;54.90;;;;;;5114891;28;20031;-67
2023/12/22 02:26:33;;;;;;;2.35;2.15;;;23.30;55.00;;;;;;5114588;28;20080;-68
2023/12/22 02:29:01;;;;;;;2.40;2.10;;;23.30;54.90;;;;;;5114107;28;20024;-68
2023/12/22 02:31:44;;;;;;;2.58;2.13;;;23.20;54.80;;;;;;5078324;28;20081;-68
2023/12/22 02:34:18;;;;;;;2.88;2.25;;;23.40;54.80;;;;;;5078276;28;20043;-67
2023/12/22 02:36:45;;;;;;;2.90;2.15;;;23.30;54.80;;;;;;5114390;28;20039;-67
2023/12/22 02:39:12;;;;;;;3.47;2.20;;;23.20;54.70;;;;;;5114236;28;20028;-68
2023/12/22 02:41:39;;;;;;;3.03;2.22;;;23.40;54.80;;;;;;5109647;28;20035;-67
2023/12/22 02:44:05;;;;;;;2.95;2.25;;;23.20;54.70;;;;;;5114372;28;20027;-67
2023/12/22 02:46:32;;;;;;;2.97;2.67;;;23.20;54.70;;;;;;5112773;28;20039;-67
2023/12/22 02:48:58;;;;;;;3.88;2.53;;;23.30;54.70;;;;;;5114088;28;20031;-67
2023/12/22 02:51:24;;;;;;;4.97;2.65;;;23.30;54.70;;;;;;5113891;28;20134;-67
2023/12/22 02:53:50;;;;;;;3.47;2.92;;;23.30;54.70;;;;;;5094809;28;20129;-67
2023/12/22 02:56:16;;;;;;;3.92;2.90;;;23.30;54.60;;;;;;5113834;28;20759;-67
2023/12/22 02:58:42;;;;;;;5.03;2.85;;;23.30;54.60;;;;;;5113007;28;20445;-67
2023/12/22 03:01:08;;;;;;;5.00;2.67;;;23.30;54.50;;;;;;5113848;28;20038;-67
2023/12/22 03:03:34;;;;;;;5.68;3.50;;;23.40;54.50;;;;;;5113883;28;20371;-67
2023/12/22 03:06:00;;;;;;;4.22;3.03;;;23.30;54.50;;;;;;5077582;28;20039;-68
2023/12/22 03:08:26;;;;;;;4.47;2.95;;;23.30;54.50;;;;;;5113635;28;20049;-67
2023/12/22 03:10:52;;;;;;;4.20;2.90;;;23.30;54.40;;;;;;5112324;28;20032;-67
2023/12/22 03:13:18;;;;;;;4.05;3.30;;;23.30;54.30;;;;;;5113558;27;20031;-68
2023/12/22 03:15:45;;;;;;;4.95;3.35;;;23.40;54.30;;;;;;5112231;28;20387;-67
2023/12/22 03:18:11;;;;;;;5.43;3.42;;;23.20;54.20;;;;;;5112623;28;20406;-67
2023/12/22 03:20:38;;;;;;;4.10;3.10;;;23.20;54.30;;;;;;5113154;28;20031;-67
2023/12/22 03:23:04;;;;;;;5.57;3.28;;;23.20;54.30;;;;;;5112964;28;20027;-68
2023/12/22 03:25:30;;;;;;;3.75;2.72;;;23.20;54.20;;;;;;5111425;28;20032;-67
2023/12/22 03:27:56;;;;;;;5.18;3.10;;;23.20;54.20;;;;;;5113299;27;20044;-68
2023/12/22 03:30:22;;;;;;;4.88;3.72;;;23.20;54.20;;;;;;5112985;28;20482;-67
2023/12/22 03:32:48;;;;;;;4.60;3.25;;;23.00;54.20;;;;;;5113379;28;20035;-67
2023/12/22 03:35:14;;;;;;;5.35;3.35;;;23.20;54.20;;;;;;5113319;28;20130;-68
2023/12/22 03:37:40;;;;;;;7.53;3.33;;;23.20;54.20;;;;;;5112996;28;20027;-67
2023/12/22 03:40:07;;;;;;;5.63;3.38;;;23.10;54.30;;;;;;5113440;28;20046;-67
2023/12/22 03:42:33;;;;;;;5.55;3.25;;;23.10;54.40;;;;;;5112604;28;20047;-67
2023/12/22 03:44:59;;;;;;;5.80;4.10;;;23.10;54.40;;;;;;5112883;28;20040;-67
2023/12/22 03:47:26;;;;;;;5.65;3.50;;;23.10;54.40;;;;;;5113016;28;20130;-67
2023/12/22 03:49:52;;;;;;;4.80;3.22;;;23.10;54.40;;;;;;5112948;28;20071;-68
2023/12/22 03:52:18;;;;;;;6.55;4.25;;;23.20;54.30;;;;;;5112723;28;20616;-67
2023/12/22 03:54:44;;;;;;;7.53;4.15;;;23.20;54.30;;;;;;5113050;28;20044;-67
2023/12/22 03:57:10;;;;;;;5.50;3.83;;;23.20;54.30;;;;;;5076136;28;20069;-67
2023/12/22 03:59:36;;;;;;;4.28;3.58;;;23.10;54.20;;;;;;5112511;28;20699;-67
2023/12/22 04:02:02;;;;;;;5.13;3.47;;;23.20;54.20;;;;;;5097506;27;20078;-68
2023/12/22 04:04:28;;;;;;;4.97;3.42;;;23.10;54.20;;;;;;5092082;28;20488;-67
2023/12/22 04:06:54;;;;;;;5.80;3.40;;;23.20;54.20;;;;;;5090957;28;20035;-68
2023/12/22 04:09:20;;;;;;;5.05;3.80;;;23.20;54.20;;;;;;5092274;28;20164;-67
2023/12/22 04:11:46;;;;;;;5.45;3.90;;;23.20;54.20;;;;;;5104943;28;20024;-67
2023/12/22 04:14:12;;;;;;;4.95;3.80;;;23.20;54.20;;;;;;5112099;28;20031;-67
2023/12/22 04:16:38;;;;;;;5.97;3.72;;;23.10;54.20;;;;;;5111758;28;20090;-67
2023/12/22 04:19:05;;;;;;;6.55;4.38;;;23.10;54.20;;;;;;5111898;28;20123;-67
2023/12/22 04:21:31;;;;;;;8.38;4.47;;;23.00;54.10;;;;;;5111281;28;20461;-67
2023/12/22 04:23:57;;;;;;;6.93;4.57;;;23.10;54.20;;;;;;5112086;28;20046;-68
2023/12/22 04:26:23;;;;;;;7.18;4.35;;;23.10;54.20;;;;;;5111646;28;20063;-67
2023/12/22 04:28:49;;;;;;;5.75;4.25;;;23.10;54.20;;;;;;5111415;28;20024;-67
2023/12/22 04:31:15;;;;;;;6.57;4.15;;;23.00;54.20;;;;;;5111651;28;20501;-67
2023/12/22 04:33:41;;;;;;;5.45;4.15;;;23.10;54.40;;;;;;5112194;28;20023;-67
2023/12/22 04:36:07;;;;;;;11.07;5.75;;;23.10;54.40;;;;;;5110649;28;20118;-67
2023/12/22 04:38:33;;;;;;;5.55;4.10;;;23.10;54.40;;;;;;5101669;27;20085;-67
2023/12/22 04:41:00;;;;;;;6.32;4.32;;;23.10;54.40;;;;;;5093478;28;20655;-67
2023/12/22 04:43:26;;;;;;;7.22;4.80;;;23.00;54.30;;;;;;5111256;28;20019;-67
2023/12/22 04:45:52;;;;;;;8.90;5.03;;;23.20;54.40;;;;;;5112046;28;20055;-67
2023/12/22 04:48:18;;;;;;;6.10;4.32;;;23.10;54.30;;;;;;5111924;28;20577;-67
2023/12/22 04:50:44;;;;;;;9.90;5.95;;;23.00;54.20;;;;;;5111813;28;20368;-66
2023/12/22 04:53:10;;;;;;;8.10;5.00;;;23.10;54.30;;;;;;5110955;28;20467;-67
2023/12/22 04:55:36;;;;;;;9.82;4.57;;;23.20;54.30;;;;;;5111430;28;20035;-67
2023/12/22 04:58:02;;;;;;;6.60;4.25;;;23.10;54.30;;;;;;5110237;28;20032;-67
2023/12/22 05:00:28;;;;;;;5.40;3.97;;;23.10;54.20;;;;;;5091746;28;20167;-67
2023/12/22 05:02:55;;;;;;;9.00;4.80;;;23.10;54.30;;;;;;5111402;28;20364;-67
2023/12/22 05:05:21;;;;;;;7.57;4.85;;;23.10;54.20;;;;;;5110918;28;20471;-67
2023/12/22 05:07:47;;;;;;;7.00;4.78;;;23.10;54.30;;;;;;5111257;28;20028;-68
2023/12/22 05:10:13;;;;;;;8.68;4.93;;;23.00;54.20;;;;;;5111565;28;20076;-68
2023/12/22 05:12:39;;;;;;;6.60;4.82;;;23.00;54.30;;;;;;5110401;28;20141;-68
2023/12/22 05:15:05;;;;;;;6.90;5.07;;;23.00;54.30;;;;;;5111449;28;20048;-67
2023/12/22 05:17:32;;;;;;;8.88;5.30;;;23.00;54.40;;;;;;5110786;28;20471;-67
2023/12/22 05:19:58;;;;;;;6.75;5.05;;;23.00;54.30;;;;;;5111566;28;20107;-67
2023/12/22 05:22:25;;;;;;;7.43;5.22;;;22.90;54.40;;;;;;5111044;28;20038;-67
2023/12/22 05:24:51;;;;;;;6.47;4.95;;;23.00;54.40;;;;;;5110967;28;20084;-67
2023/12/22 05:27:18;;;;;;;9.93;5.32;;;22.90;54.40;;;;;;5090300;28;20458;-67
2023/12/22 05:29:44;;;;;;;10.73;6.00;;;22.90;54.50;;;;;;5110946;28;20023;-67
2023/12/22 05:32:11;;;;;;;7.55;5.22;;;22.90;54.50;;;;;;5110959;28;20035;-67
2023/12/22 05:34:37;;;;;;;8.65;5.07;;;23.00;54.50;;;;;;5111165;28;20122;-67
2023/12/22 05:37:03;;;;;;;9.32;5.68;;;22.90;54.50;;;;;;5107066;28;20054;-70
2023/12/22 05:39:29;;;;;;;7.90;5.55;;;22.80;54.30;;;;;;5100663;28;20039;-70
2023/12/22 05:41:55;;;;;;;2.55;2.15;;;22.90;53.70;;;;;;5100275;28;20084;-69
2023/12/22 05:44:23;;;;;;;3.25;2.88;;;23.00;47.80;;;;;;5101659;28;20020;-69
2023/12/22 05:46:50;;;;;;;3.10;2.55;;;23.00;45.10;;;;;;5102736;28;20063;-68
2023/12/22 05:49:16;;;;;;;3.63;2.70;;;23.00;48.20;;;;;;5068001;28;20040;-68
2023/12/22 05:51:42;;;;;;;5.65;3.42;;;23.10;46.60;;;;;;5103538;28;20071;-68
2023/12/22 05:54:10;;;;;;;4.50;3.13;;;23.00;46.10;;;;;;5106153;28;20470;-68
2023/12/22 05:56:36;;;;;;;3.22;2.92;;;23.10;48.80;;;;;;5103079;28;20039;-75
2023/12/22 05:59:03;;;;;;;4.10;3.53;;;23.20;43.40;;;;;;5106109;28;20024;-73
2023/12/22 06:01:29;;;;;;;5.93;3.63;;;23.20;42.30;;;;;;5107183;28;20453;-73
2023/12/22 06:03:56;;;;;;;13.98;8.15;;;23.20;47.80;;;;;;5107729;28;20032;-73
2023/12/22 06:06:22;;;;;;;11.75;8.20;;;23.20;44.00;;;;;;5105515;28;20055;-73
2023/12/22 06:08:49;;;;;;;5.22;3.60;;;23.00;44.30;;;;;;5103246;28;20024;-72
2023/12/22 06:11:15;;;;;;;7.85;3.72;;;23.20;41.90;;;;;;5096733;28;20039;-73
2023/12/22 06:13:41;;;;;;;10.15;5.60;;;23.20;52.20;;;;;;5110447;28;20467;-72
2023/12/22 06:16:13;;;;;;;9.30;5.45;;;23.30;54.40;;;;;;5107638;28;20048;-70
2023/12/22 06:18:39;;;;;;;10.63;5.63;;;23.40;54.70;;;;;;5112944;28;20130;-71
2023/12/22 06:21:05;;;;;;;9.93;6.10;;;23.40;53.60;;;;;;5108701;27;20094;-71
2023/12/22 06:23:31;;;;;;;10.85;5.43;;;23.20;53.40;;;;;;5105369;28;20036;-74
2023/12/22 06:25:57;;;;;;;9.52;5.82;;;23.40;53.60;;;;;;5114467;28;20432;-72
2023/12/22 06:28:23;;;;;;;10.20;6.65;;;23.30;53.90;;;;;;5114047;28;20024;-72
2023/12/22 06:30:50;;;;;;;9.30;6.18;;;23.30;54.00;;;;;;5112440;28;20059;-71
2023/12/22 06:33:16;;;;;;;12.55;6.03;;;23.30;54.30;;;;;;5112890;27;20031;-71
2023/12/22 06:35:42;;;;;;;11.38;5.50;;;23.20;54.50;;;;;;5114296;28;20034;-71
2023/12/22 06:38:08;;;;;;;11.13;5.45;;;23.30;54.70;;;;;;5113906;28;20042;-74
2023/12/22 06:40:37;;;;;;;7.13;4.78;;;23.20;54.70;;;;;;5114289;28;20028;-76
2023/12/22 06:43:04;;;;;;;11.23;6.07;;;23.20;54.80;;;;;;5112313;28;20028;-75
2023/12/22 06:45:30;;;;;;;6.28;4.10;;;23.30;55.00;;;;;;5106728;28;20112;-75
2023/12/22 06:47:56;;;;;;;5.72;4.18;;;23.30;55.30;;;;;;5114304;28;20114;-74
2023/12/22 06:50:22;;;;;;;7.30;3.88;;;23.20;55.40;;;;;;5114476;28;20081;-72
2023/12/22 06:52:49;;;;;;;3.40;1.83;;;23.40;55.60;;;;;;5113887;28;20115;-71
2023/12/22 06:55:16;;;;;;;4.95;2.38;;;23.40;55.70;;;;;;5109076;28;20031;-71
2023/12/22 06:57:43;;;;;;;8.10;5.07;;;23.50;55.60;;;;;;5113248;28;20430;-69
2023/12/22 07:00:09;;;;;;;7.72;4.32;;;23.50;55.40;;;;;;5112384;28;20080;-71
2023/12/22 07:02:35;;;;;;;8.32;5.55;;;23.30;55.30;;;;;;5112877;28;20080;-69
2023/12/22 07:05:23;;;;;;;9.35;5.72;;;23.50;55.30;;;;;;5111803;28;20161;-68
2023/12/22 07:07:50;;;;;;;9.32;5.57;;;23.40;55.10;;;;;;5108806;28;20039;-68
2023/12/22 07:10:16;;;;;;;7.93;3.45;;;23.40;55.10;;;;;;5102405;28;20513;-67
2023/12/22 07:12:42;;;;;;;6.93;4.32;;;23.30;55.00;;;;;;5104004;28;20035;-68
2023/12/22 07:15:08;;;;;;;5.03;2.80;;;23.40;55.00;;;;;;5113054;28;20388;-68
2023/12/22 07:17:35;;;;;;;7.78;5.53;;;23.40;55.00;;;;;;5097614;28;20067;-68
2023/12/22 07:20:03;;;;;;;11.18;5.90;;;23.20;54.90;;;;;;5074003;28;20063;-69
2023/12/22 07:22:29;;;;;;;6.85;3.58;;;23.30;55.00;;;;;;5109274;28;20035;-69
2023/12/22 07:24:55;;;;;;;9.70;5.20;;;23.40;55.00;;;;;;5108110;27;20046;-69
2023/12/22 07:27:22;;;;;;;5.80;2.88;;;23.40;55.10;;;;;;5093394;28;20510;-69
2023/12/22 07:29:48;;;;;;;3.55;2.45;;;23.40;56.70;;;;;;5093733;28;20063;-69
2023/12/22 07:32:14;;;;;;;3.58;1.88;;;23.40;56.90;;;;;;5098315;28;20112;-69
2023/12/22 07:34:40;;;;;;;3.13;2.35;;;23.40;56.40;;;;;;5106614;28;20049;-69
2023/12/22 07:37:06;;;;;;;9.32;5.75;;;23.50;55.60;;;;;;5105776;28;20485;-68
2023/12/22 07:39:32;;;;;;;9.25;3.72;;;23.50;54.20;;;;;;5080116;28;20432;-69
2023/12/22 07:41:58;;;;;;;9.10;6.05;;;23.50;53.20;;;;;;5098546;28;20047;-67
2023/12/22 07:44:24;;;;;;;11.20;5.82;;;23.40;52.50;;;;;;5112560;28;20085;-69
2023/12/22 07:47:00;;;;;;;9.82;5.10;;;23.40;52.30;;;;;;5076588;28;20055;-69
2023/12/22 07:49:27;;;;;;;8.63;5.10;;;23.40;52.40;;;;;;5113138;28;20031;-68
2023/12/22 07:51:53;;;;;;;5.65;4.03;;;23.40;52.60;;;;;;5109721;28;20435;-68
2023/12/22 07:54:19;;;;;;;7.88;4.57;;;23.30;52.70;;;;;;5092323;28;20032;-68
2023/12/22 07:56:45;;;;;;;6.53;4.47;;;23.40;52.80;;;;;;5092226;28;20046;-67
2023/12/22 07:59:11;;;;;;;6.45;4.95;;;23.40;52.90;;;;;;5091166;28;20441;-68
2023/12/22 08:01:37;;;;;;;10.20;4.72;;;23.30;52.90;;;;;;5110292;28;20043;-68
2023/12/22 08:04:04;;;;;;;9.75;6.15;;;23.30;53.00;;;;;;5111331;28;20062;-68
2023/12/22 08:06:30;;;;;;;8.23;5.07;;;23.20;53.00;;;;;;5111362;28;20046;-67
2023/12/22 08:08:56;;;;;;;3.83;3.15;;;23.30;53.10;;;;;;5112516;28;20031;-68
2023/12/22 08:11:25;;;;;;;4.05;2.25;;;23.20;52.90;;;;;;5112653;28;20510;-68
2023/12/22 08:13:51;;;;;;;5.05;2.47;;;23.20;52.80;;;;;;5094380;28;20093;-68
2023/12/22 08:16:17;;;;;;;6.28;3.08;;;23.20;52.90;;;;;;5088438;28;20044;-69
2023/12/22 08:18:43;;;;;;;3.42;2.70;;;23.10;53.00;;;;;;5112319;28;20044;-67
2023/12/22 08:21:09;;;;;;;4.50;2.60;;;23.20;52.90;;;;;;5112363;28;20069;-68
2023/12/22 08:23:35;;;;;;;3.30;2.47;;;23.20;52.10;;;;;;5109789;28;20067;-66
2023/12/22 08:26:01;;;;;;;7.82;3.53;;;23.20;51.90;;;;;;5110140;28;20038;-67
2023/12/22 08:28:27;;;;;;;5.90;3.75;;;23.10;51.60;;;;;;5108822;28;20076;-68
2023/12/22 08:30:53;;;;;;;7.88;3.92;;;23.20;51.60;;;;;;5107550;28;20031;-67
2023/12/22 08:33:20;;;;;;;12.55;3.55;;;23.20;51.40;;;;;;5111946;28;20039;-67
2023/12/22 08:35:46;;;;;;;8.25;2.78;;;23.10;51.30;;;;;;5112043;28;20108;-67
2023/12/22 08:38:13;;;;;;;4.72;2.80;;;23.10;50.90;;;;;;5111904;28;20034;-67
2023/12/22 08:40:39;;;;;;;3.13;2.80;;;23.10;50.50;;;;;;5100846;28;20402;-67
2023/12/22 08:43:06;;;;;;;6.18;3.45;;;23.20;50.10;;;;;;5106417;28;20032;-68
2023/12/22 08:45:32;;;;;;;3.42;2.55;;;23.10;49.80;;;;;;5101730;28;20519;-68
2023/12/22 08:47:58;;;;;;;4.57;2.45;;;23.10;49.50;;;;;;5108637;28;20081;-68
2023/12/22 08:50:25;;;;;;;8.25;4.43;;;23.20;49.60;;;;;;5109172;28;20059;-70
2023/12/22 08:52:52;;;;;;;5.88;3.33;;;23.10;49.80;;;;;;5111613;28;20043;-72
2023/12/22 08:55:18;;;;;;;5.13;2.85;;;23.10;49.60;;;;;;5111265;28;20027;-72
2023/12/22 08:57:44;;;;;;;4.68;3.13;;;23.10;49.30;;;;;;5110025;28;20364;-72
2023/12/22 09:00:11;;;;;;;4.25;2.50;;;23.10;48.80;;;;;;5108889;28;20080;-70
2023/12/22 09:02:37;;;;;;;7.00;4.20;;;23.20;48.60;;;;;;5105016;28;20036;-73
2023/12/22 09:05:03;;;;;;;8.50;3.40;;;23.20;48.50;;;;;;5111403;28;20043;-72
2023/12/22 09:07:29;;;;;;;7.35;4.38;;;23.10;48.60;;;;;;5111088;28;20039;-68
2023/12/22 09:09:55;;;;;;;15.07;7.15;;;23.10;48.90;;;;;;5110906;28;20043;-73
2023/12/22 09:12:21;;;;;;;9.23;4.82;;;23.10;49.20;;;;;;5106402;28;20511;-73
2023/12/22 09:14:47;;;;;;;9.85;5.10;;;23.10;49.60;;;;;;5105298;28;20027;-73
2023/12/22 09:17:14;;;;;;;5.40;3.97;;;23.10;50.20;;;;;;5109864;28;20118;-73
2023/12/22 09:19:40;;;;;;;3.08;2.40;;;23.00;50.50;;;;;;5110553;28;20196;-72
2023/12/22 09:22:06;;;;;;;7.85;4.88;;;23.00;50.90;;;;;;5111429;28;20233;-72
2023/12/22 09:24:32;;;;;;;8.82;5.22;;;23.00;51.30;;;;;;5092569;28;20380;-71
2023/12/22 09:27:02;;;;;;;9.23;6.20;;;23.00;51.40;;;;;;5109939;28;20058;-71
2023/12/22 09:29:33;;;;;;;9.70;5.13;;;23.00;51.70;;;;;;5110971;28;20019;-74
2023/12/22 09:31:59;;;;;;;7.63;5.03;;;23.00;52.00;;;;;;5110491;28;20379;-72
2023/12/22 09:34:28;;;;;;;12.73;5.45;;;23.00;52.40;;;;;;5111206;28;20034;-72
2023/12/22 09:36:55;;;;;;;9.75;5.22;;;23.00;52.70;;;;;;5111208;28;20379;-72
2023/12/22 09:39:21;;;;;;;10.32;6.05;;;23.00;53.10;;;;;;5111213;28;20408;-71
2023/12/22 09:41:51;;;;;;;10.40;6.05;;;23.00;53.40;;;;;;5110122;28;20035;-71
2023/12/22 09:44:21;;;;;;;8.57;5.63;;;23.10;53.90;;;;;;5110606;28;20046;-70
2023/12/22 09:46:50;;;;;;;12.32;5.72;;;23.00;54.30;;;;;;5111006;28;20043;-72
2023/12/22 09:49:18;;;;;;;9.38;5.63;;;23.10;54.50;;;;;;5109173;28;20536;-73
2023/12/22 09:51:45;;;;;;;9.52;5.25;;;23.10;54.60;;;;;;5106646;28;20028;-71
2023/12/22 09:54:13;;;;;;;7.47;5.40;;;23.10;54.80;;;;;;5097023;28;20030;-72
2023/12/22 09:56:43;;;;;;;8.18;5.05;;;23.10;54.90;;;;;;5110329;28;20106;-71
2023/12/22 09:59:15;;;;;;;9.73;5.80;;;23.00;55.40;;;;;;5108775;28;20051;-71
2023/12/22 10:01:45;;;;;;;10.35;6.10;;;23.10;55.50;;;;;;5104760;28;20021;-71
2023/12/22 10:04:13;;;;;;;10.98;6.20;;;23.00;55.90;;;;;;5109888;28;20118;-71
2023/12/22 10:06:39;;;;;;;11.32;6.03;;;23.10;56.70;;;;;;5110579;28;20418;-72
2023/12/22 10:09:08;;;;;;;11.52;6.32;;;23.00;56.40;;;;;;5109683;28;20036;-72
2023/12/22 10:11:38;;;;;;;8.85;5.68;;;23.00;57.10;;;;;;5110718;28;20506;-71
2023/12/22 10:14:05;;;;;;;8.60;6.13;;;23.00;57.00;;;;;;5110195;28;20031;-72
2023/12/22 10:16:31;;;;;;;11.98;6.15;;;23.00;57.40;;;;;;5100833;28;20127;-71
2023/12/22 10:19:00;;;;;;;8.55;5.97;;;23.00;57.30;;;;;;5090460;28;20047;-72
2023/12/22 10:21:26;;;;;;;10.07;6.50;;;23.00;57.10;;;;;;5092746;28;20028;-72
2023/12/22 10:23:52;;;;;;;9.38;6.85;;;22.90;57.00;;;;;;5110275;28;20481;-71
2023/12/22 10:26:18;;;;;;;11.75;6.07;;;22.90;57.00;;;;;;5110486;28;20080;-71
2023/12/22 10:28:47;;;;;;;12.95;6.45;;;23.00;56.80;;;;;;5109793;28;20492;-71
2023/12/22 10:31:13;;;;;;;10.48;7.00;;;23.10;56.90;;;;;;5110144;28;20402;-71
2023/12/22 10:33:39;;;;;;;13.85;6.80;;;23.00;56.60;;;;;;5108432;28;20038;-71
2023/12/22 10:36:07;;;;;;;10.63;6.18;;;23.00;56.50;;;;;;5111255;28;20031;-71
2023/12/22 10:38:37;;;;;;;9.75;6.03;;;23.00;56.50;;;;;;5113591;28;20386;-71
2023/12/22 10:41:05;;;;;;;13.52;6.70;;;22.90;56.40;;;;;;5113231;28;20081;-71
2023/12/22 10:43:36;;;;;;;12.10;7.03;;;23.10;56.40;;;;;;5113409;28;20036;-72
2023/12/22 10:46:03;;;;;;;11.93;6.78;;;23.10;56.30;;;;;;5113032;28;20155;-71
2023/12/22 10:48:29;;;;;;;9.15;5.53;;;23.00;56.10;;;;;;5113894;28;20038;-72
2023/12/22 10:50:55;;;;;;;9.93;6.35;;;23.00;56.00;;;;;;5061418;28;20047;-72
2023/12/22 10:53:23;;;;;;;9.63;5.72;;;23.00;55.90;;;;;;5113644;28;20752;-72
2023/12/22 10:55:50;;;;;;;11.48;6.03;;;23.00;55.90;;;;;;5113759;28;20024;-72
2023/12/22 10:58:17;;;;;;;6.43;4.28;;;23.00;55.90;;;;;;5113797;28;20051;-71
2023/12/22 11:00:46;;;;;;;5.22;3.00;;;22.90;55.90;;;;;;5113438;28;20039;-72
2023/12/22 11:03:17;;;;;;;3.40;1.90;;;23.00;55.80;;;;;;5113711;28;20058;-72
2023/12/22 11:05:47;;;;;;;10.35;2.95;;;23.00;55.70;;;;;;5114283;28;20057;-72
2023/12/22 11:08:15;;;;;;;4.50;3.10;;;23.20;53.90;;;;;;5113478;27;20032;-72
2023/12/22 11:10:47;;;;;;;5.72;3.38;;;23.30;56.20;;;;;;5112763;28;20092;-71
2023/12/22 11:13:14;;;;;;;6.50;2.90;;;23.40;54.80;;;;;;5111514;28;20034;-73
2023/12/22 11:15:41;;;;;;;6.90;3.28;;;23.50;54.00;;;;;;5112440;28;20468;-77
2023/12/22 11:18:09;;;;;;;5.43;3.33;;;23.60;52.00;;;;;;5113383;28;20518;-79
2023/12/22 11:20:36;;;;;;;6.63;3.72;;;23.70;51.60;;;;;;5112909;28;20043;-78
2023/12/22 11:23:03;;;;;;;321.85;195.30;;;23.80;49.80;;;;;;5112832;28;20020;-76
2023/12/22 11:25:31;;;;;;;24.98;22.10;;;23.70;48.80;;;;;;5111748;28;20501;-77
2023/12/22 11:28:00;;;;;;;44.80;21.85;;;24.00;46.10;;;;;;5113475;28;20027;-78
2023/12/22 11:30:28;;;;;;;10.00;6.80;;;24.10;45.50;;;;;;5088962;28;20079;-79
2023/12/22 11:32:55;;;;;;;7.07;5.40;;;24.10;42.40;;;;;;5073589;28;20043;-78
2023/12/22 11:35:24;;;;;;;8.07;5.50;;;24.10;38.20;;;;;;5089692;28;20051;-78
2023/12/22 11:37:50;;;;;;;9.15;4.65;;;24.10;39.60;;;;;;5089936;28;20051;-78
2023/12/22 11:40:16;;;;;;;8.77;5.10;;;24.10;37.60;;;;;;5089828;28;20713;-73
2023/12/22 11:42:49;;;;;;;8.85;4.53;;;24.00;40.60;;;;;;5089663;28;20039;-84
2023/12/22 11:45:16;;;;;;;5.88;3.80;;;24.10;39.50;;;;;;5089438;28;20558;-79
2023/12/22 11:47:42;;;;;;;5.03;3.40;;;24.00;39.60;;;;;;5082285;28;20028;-76
2023/12/22 11:50:10;;;;;;;23.45;4.43;;;24.10;42.10;;;;;;5070074;28;20056;-75
2023/12/22 11:52:37;;;;;;;9.38;3.10;;;24.10;44.00;;;;;;5080187;28;20063;-75
2023/12/22 11:55:03;;;;;;;5.68;2.63;;;24.00;42.40;;;;;;5090000;28;20036;-82
2023/12/22 11:57:33;;;;;;;4.78;2.58;;;24.10;42.00;;;;;;5090200;28;20035;-77
2023/12/22 12:00:07;;;;;;;6.88;2.55;;;23.90;37.50;;;;;;5089768;28;20043;-75
2023/12/22 12:02:41;;;;;;;2.75;2.00;;;24.00;36.90;;;;;;5110882;28;20403;-82
2023/12/22 12:05:09;;;;;;;3.13;2.25;;;23.90;38.90;;;;;;5112333;28;20024;-76
2023/12/22 12:08:05;;;;;;;3.40;2.20;;;23.90;38.40;;;;;;5112276;28;20376;-78
2023/12/22 12:10:32;;;;;;;4.82;3.03;;;23.80;36.90;;;;;;5111900;28;20050;-81
2023/12/22 12:13:09;;;;;;;3.10;2.00;;;23.90;44.40;;;;;;5112420;28;20023;-75
2023/12/22 12:15:35;;;;;;;3.13;1.90;;;23.90;38.80;;;;;;5111917;28;20043;-75
2023/12/22 12:18:05;;;;;;;1.40;1.30;;;23.70;37.20;;;;;;5111851;28;20046;-73
2023/12/22 12:20:32;;;;;;;2.03;1.02;;;23.70;48.00;;;;;;5112004;28;20031;-75
2023/12/22 12:23:01;;;;;;;1.95;1.45;;;23.80;49.10;;;;;;5112374;28;20114;-74
2023/12/22 12:25:32;;;;;;;3.45;2.10;;;23.70;51.50;;;;;;5112857;28;20035;-83
2023/12/22 12:28:06;;;;;;;2.90;1.77;;;23.90;47.70;;;;;;5112524;28;20534;-81
2023/12/22 12:30:33;;;;;;;4.78;2.15;;;23.90;48.60;;;;;;5112024;28;20047;-84
2023/12/22 12:33:06;;;;;;;2.85;1.80;;;23.90;46.00;;;;;;5112602;28;20024;-83
2023/12/22 12:35:37;;;;;;;3.58;2.10;;;23.90;44.30;;;;;;5112767;28;20063;-77
2023/12/22 12:38:04;;;;;;;3.53;2.28;;;23.70;43.00;;;;;;5112906;28;20055;-83
2023/12/22 12:40:32;;;;;;;5.85;2.55;;;23.70;44.20;;;;;;5108683;28;20039;-80
2023/12/22 12:42:58;;;;;;;5.55;2.15;;;23.80;44.70;;;;;;5110382;28;20211;-77
2023/12/22 12:45:25;;;;;;;4.05;2.20;;;23.80;43.50;;;;;;5111086;28;20031;-79